Time;durP1;ratioP1;P1;durP2;ratioP2;P2;SDS_P1;SDS_P2;PMS_P1;PMS_P2;Temp;Humidity;BMP_temperature;BMP_pressure;BME280_temperature;BME280_humidity;BME280_pressure;Samples;Min_cycle;Max_cycle;Signal;HPM_P1;HPM_P2
2023/12/31 00:01:49;;;;;;;7.82;2.70;;;8.30;99.90;;;;;;4962942;28;20529;-77
2023/12/31 00:04:14;;;;;;;5.07;2.70;;;8.30;99.90;;;;;;4965310;28;20546;-77
2023/12/31 00:06:40;;;;;;;6.00;2.53;;;8.30;99.90;;;;;;4962750;28;20457;-76
2023/12/31 00:09:05;;;;;;;5.50;2.40;;;8.30;99.90;;;;;;4972709;28;20565;-76
2023/12/31 00:11:31;;;;;;;5.22;2.78;;;8.30;99.90;;;;;;4968306;28;20515;-75
2023/12/31 00:13:56;;;;;;;5.50;2.42;;;8.20;99.90;;;;;;4966306;28;20495;-76
2023/12/31 00:16:22;;;;;;;5.85;2.80;;;8.20;99.90;;;;;;4962711;28;20631;-76
2023/12/31 00:18:47;;;;;;;6.82;2.80;;;8.20;99.90;;;;;;4956239;28;20541;-76
2023/12/31 00:21:13;;;;;;;5.45;2.70;;;8.20;99.90;;;;;;4970666;28;20121;-76
2023/12/31 00:23:39;;;;;;;6.28;3.08;;;8.20;99.90;;;;;;4973810;28;20042;-76
2023/12/31 00:26:04;;;;;;;6.90;2.85;;;8.20;99.90;;;;;;4973629;28;20145;-76
2023/12/31 00:28:30;;;;;;;4.65;2.80;;;8.20;99.90;;;;;;4967280;28;20071;-76
2023/12/31 00:30:55;;;;;;;6.38;2.38;;;8.20;99.90;;;;;;4964570;28;20054;-76
2023/12/31 00:33:21;;;;;;;6.88;3.10;;;8.10;99.90;;;;;;4980549;28;20038;-75
2023/12/31 00:35:47;;;;;;;5.40;2.80;;;8.10;99.90;;;;;;4965717;28;20042;-76
2023/12/31 00:38:13;;;;;;;4.95;2.50;;;8.10;99.90;;;;;;4966706;28;20079;-74
2023/12/31 00:40:38;;;;;;;4.03;2.50;;;8.10;99.90;;;;;;4966483;28;20158;-76
2023/12/31 00:43:04;;;;;;;5.32;2.50;;;8.10;99.90;;;;;;4976727;28;20039;-76
2023/12/31 00:45:29;;;;;;;5.43;2.50;;;8.20;99.90;;;;;;4977039;28;20535;-76
2023/12/31 00:47:55;;;;;;;5.43;2.72;;;8.20;99.90;;;;;;4955387;28;20512;-76
2023/12/31 00:50:20;;;;;;;4.03;2.35;;;8.20;99.90;;;;;;4963583;28;20705;-76
2023/12/31 00:52:46;;;;;;;4.43;2.70;;;8.20;99.90;;;;;;4947025;28;20789;-76
2023/12/31 00:55:12;;;;;;;6.90;2.55;;;8.20;99.90;;;;;;4959016;28;20093;-76
2023/12/31 00:57:37;;;;;;;5.63;2.28;;;8.20;99.90;;;;;;4955961;28;20051;-76
2023/12/31 01:00:04;;;;;;;5.05;2.70;;;8.20;99.90;;;;;;4963770;28;20554;-76
2023/12/31 01:02:30;;;;;;;4.10;2.17;;;8.20;99.90;;;;;;4978674;28;20137;-76
2023/12/31 01:04:56;;;;;;;4.80;2.40;;;8.20;99.90;;;;;;4953959;28;20126;-75
2023/12/31 01:07:22;;;;;;;5.43;2.40;;;8.20;99.90;;;;;;4966477;28;20039;-75
2023/12/31 01:09:47;;;;;;;4.57;2.40;;;8.20;99.90;;;;;;4972046;28;20549;-76
2023/12/31 01:12:13;;;;;;;4.45;2.40;;;8.20;99.90;;;;;;4977559;28;20035;-76
2023/12/31 01:14:39;;;;;;;3.65;2.20;;;8.20;99.90;;;;;;4970143;28;20042;-76
2023/12/31 01:17:05;;;;;;;3.17;2.10;;;8.20;99.90;;;;;;4971461;28;20046;-76
2023/12/31 01:19:30;;;;;;;5.25;2.00;;;8.20;99.90;;;;;;4971554;28;20112;-76
2023/12/31 01:21:56;;;;;;;5.15;2.03;;;8.20;99.90;;;;;;4955472;28;20454;-76
2023/12/31 01:24:21;;;;;;;4.13;2.10;;;8.20;99.90;;;;;;4973810;28;20149;-76
2023/12/31 01:26:47;;;;;;;4.25;1.85;;;8.20;99.90;;;;;;4973831;28;20050;-76
2023/12/31 01:29:12;;;;;;;2.83;1.70;;;8.20;99.90;;;;;;4978202;28;20035;-76
2023/12/31 01:31:38;;;;;;;3.13;1.70;;;8.20;99.90;;;;;;4964970;28;20047;-76
2023/12/31 01:34:04;;;;;;;3.53;1.90;;;8.20;99.90;;;;;;4962708;28;20074;-76
2023/12/31 01:36:29;;;;;;;4.85;1.90;;;8.30;99.90;;;;;;4968543;28;20047;-76
2023/12/31 01:38:55;;;;;;;4.88;1.88;;;8.30;99.90;;;;;;4962986;28;20065;-75
2023/12/31 01:41:21;;;;;;;4.28;2.05;;;8.30;99.90;;;;;;4960637;28;20156;-76
2023/12/31 01:43:47;;;;;;;3.40;1.70;;;8.30;99.90;;;;;;4966476;28;20058;-76
2023/12/31 01:46:25;;;;;;;6.45;1.65;;;8.40;99.90;;;;;;4967605;28;20438;-76
2023/12/31 01:48:52;;;;;;;3.25;1.90;;;8.30;99.90;;;;;;4956284;28;20049;-76
2023/12/31 01:51:17;;;;;;;2.95;1.60;;;8.30;99.90;;;;;;4964136;28;20039;-79
2023/12/31 01:53:43;;;;;;;4.13;1.60;;;8.40;99.90;;;;;;4964202;28;20398;-75
2023/12/31 01:56:10;;;;;;;2.78;1.70;;;8.40;99.90;;;;;;4953447;28;20047;-76
2023/12/31 01:58:36;;;;;;;2.50;1.50;;;8.30;99.90;;;;;;4954361;28;20498;-76
2023/12/31 02:01:02;;;;;;;5.18;1.55;;;8.40;99.90;;;;;;4956345;28;20047;-76
2023/12/31 02:03:29;;;;;;;3.45;1.45;;;8.40;99.90;;;;;;4962120;28;20058;-76
2023/12/31 02:05:55;;;;;;;2.25;1.40;;;8.30;99.90;;;;;;4972001;28;20559;-76
2023/12/31 02:08:20;;;;;;;3.47;1.40;;;8.30;99.90;;;;;;4970956;28;20078;-76
2023/12/31 02:10:46;;;;;;;2.85;1.80;;;8.40;99.90;;;;;;4971193;28;20042;-76
2023/12/31 02:13:11;;;;;;;2.97;1.50;;;8.30;99.90;;;;;;4965154;28;20122;-75
2023/12/31 02:15:37;;;;;;;2.95;1.35;;;8.40;99.90;;;;;;4970974;28;20051;-76
2023/12/31 02:18:03;;;;;;;3.28;1.58;;;8.30;99.90;;;;;;4955635;28;20039;-76
2023/12/31 02:20:30;;;;;;;3.00;1.55;;;8.30;99.90;;;;;;4973983;28;20074;-76
2023/12/31 02:22:56;;;;;;;3.30;1.52;;;8.30;99.90;;;;;;4967566;28;20044;-76
2023/12/31 02:25:24;;;;;;;5.00;1.70;;;8.30;99.90;;;;;;4957539;28;20055;-75
2023/12/31 02:27:51;;;;;;;2.22;1.33;;;8.30;99.90;;;;;;4963975;28;20035;-75
2023/12/31 02:30:17;;;;;;;3.13;1.35;;;8.30;99.90;;;;;;4966492;28;20049;-76
2023/12/31 02:32:42;;;;;;;3.40;1.45;;;8.30;99.90;;;;;;4962645;28;20509;-75
2023/12/31 02:35:08;;;;;;;2.95;1.40;;;8.30;99.90;;;;;;4969168;28;20047;-76
2023/12/31 02:37:33;;;;;;;3.17;1.35;;;8.30;99.90;;;;;;4963456;28;20134;-76
2023/12/31 02:39:59;;;;;;;2.88;1.60;;;8.30;99.90;;;;;;4960430;28;20129;-76
2023/12/31 02:42:24;;;;;;;3.90;1.67;;;8.30;99.90;;;;;;4963109;28;20396;-76
2023/12/31 02:44:50;;;;;;;4.80;1.83;;;8.30;99.90;;;;;;4958962;28;20050;-76
2023/12/31 02:47:16;;;;;;;2.92;1.88;;;8.30;99.90;;;;;;4964774;28;20042;-76
2023/12/31 02:49:41;;;;;;;3.47;2.08;;;8.30;99.90;;;;;;4956821;28;20054;-76
2023/12/31 02:52:09;;;;;;;3.10;1.88;;;8.30;99.90;;;;;;4957552;28;20043;-76
2023/12/31 02:54:35;;;;;;;2.72;1.85;;;8.30;99.90;;;;;;4957016;28;20114;-76
2023/12/31 02:57:01;;;;;;;4.22;2.30;;;8.30;99.90;;;;;;4966781;28;20178;-75
2023/12/31 02:59:26;;;;;;;5.90;2.15;;;8.30;99.90;;;;;;4964462;28;20047;-76
2023/12/31 03:01:53;;;;;;;5.68;2.72;;;8.30;99.90;;;;;;4955597;28;20051;-76
2023/12/31 03:04:18;;;;;;;5.53;2.55;;;8.30;99.90;;;;;;4960143;28;20043;-76
2023/12/31 03:06:44;;;;;;;4.68;2.58;;;8.30;99.90;;;;;;4970406;28;20034;-76
2023/12/31 03:09:09;;;;;;;4.75;2.65;;;8.30;99.90;;;;;;4967271;28;20038;-76
2023/12/31 03:11:36;;;;;;;7.03;2.95;;;8.30;99.90;;;;;;4981426;28;20051;-76
2023/12/31 03:14:02;;;;;;;5.45;2.90;;;8.30;99.90;;;;;;4973688;28;20043;-76
2023/12/31 03:16:27;;;;;;;5.97;3.10;;;8.30;99.90;;;;;;4982669;28;20034;-76
2023/12/31 03:18:53;;;;;;;6.55;2.83;;;8.20;99.90;;;;;;4976291;28;20043;-76
2023/12/31 03:21:19;;;;;;;7.78;3.00;;;8.30;99.90;;;;;;4958039;28;20027;-76
2023/12/31 03:23:44;;;;;;;5.32;2.97;;;8.20;99.90;;;;;;4960162;28;20039;-75
2023/12/31 03:26:10;;;;;;;5.53;3.17;;;8.20;99.90;;;;;;4959370;28;20178;-76
2023/12/31 03:28:37;;;;;;;5.65;2.70;;;8.20;99.90;;;;;;4967166;28;20069;-75
2023/12/31 03:31:03;;;;;;;5.40;3.03;;;8.20;99.90;;;;;;4963211;28;20143;-74
2023/12/31 03:33:32;;;;;;;4.80;2.67;;;8.10;99.90;;;;;;4958498;28;20419;-76
2023/12/31 03:35:57;;;;;;;5.32;3.13;;;8.20;99.90;;;;;;4965380;28;20039;-76
2023/12/31 03:38:23;;;;;;;5.55;2.70;;;8.20;99.90;;;;;;4955799;28;20093;-76
2023/12/31 03:40:48;;;;;;;5.55;2.65;;;8.20;99.90;;;;;;4953864;28;20074;-76
2023/12/31 03:43:14;;;;;;;5.97;3.20;;;8.20;99.90;;;;;;4956430;28;20039;-75
2023/12/31 03:45:39;;;;;;;4.25;2.83;;;8.10;99.90;;;;;;4962936;28;20062;-76
2023/12/31 03:48:05;;;;;;;4.90;2.70;;;8.20;99.90;;;;;;4974817;28;20047;-76
2023/12/31 03:50:31;;;;;;;4.93;2.47;;;8.20;99.90;;;;;;4962992;28;20133;-76
2023/12/31 03:52:57;;;;;;;7.07;2.90;;;8.20;99.90;;;;;;4953549;28;20039;-75
2023/12/31 03:55:23;;;;;;;7.00;3.03;;;8.20;99.90;;;;;;4965156;28;20043;-76
2023/12/31 03:57:49;;;;;;;4.32;2.80;;;8.20;99.90;;;;;;4965850;28;20043;-76
2023/12/31 04:00:15;;;;;;;5.65;3.10;;;8.20;99.90;;;;;;4965494;28;20133;-76
2023/12/31 04:02:40;;;;;;;6.47;3.22;;;8.20;99.90;;;;;;4982183;28;20045;-76
2023/12/31 04:05:06;;;;;;;6.15;3.47;;;8.20;99.90;;;;;;4970334;28;20041;-76
2023/12/31 04:07:32;;;;;;;6.90;3.85;;;8.20;99.90;;;;;;4971178;28;20046;-74
2023/12/31 04:09:57;;;;;;;7.03;4.20;;;8.20;99.90;;;;;;4980697;28;20083;-76
2023/12/31 04:12:23;;;;;;;6.05;3.53;;;8.20;99.90;;;;;;4955843;28;20405;-75
2023/12/31 04:14:48;;;;;;;7.70;3.80;;;8.20;99.90;;;;;;4967505;28;20054;-76
2023/12/31 04:17:14;;;;;;;7.20;3.80;;;8.20;99.90;;;;;;4972035;28;20065;-76
2023/12/31 04:19:40;;;;;;;6.60;3.70;;;8.20;99.90;;;;;;4961830;28;20122;-76
2023/12/31 04:22:05;;;;;;;6.07;3.70;;;8.20;99.90;;;;;;4962211;28;20043;-75
2023/12/31 04:24:31;;;;;;;6.25;3.70;;;8.20;99.90;;;;;;4966442;28;20038;-76
2023/12/31 04:26:57;;;;;;;7.75;3.78;;;8.20;99.90;;;;;;4975886;28;20035;-76
2023/12/31 04:29:23;;;;;;;7.70;3.63;;;8.30;99.90;;;;;;4966201;28;20042;-78
2023/12/31 04:31:48;;;;;;;7.60;3.50;;;8.20;99.90;;;;;;4959622;28;20138;-76
2023/12/31 04:34:14;;;;;;;8.60;3.50;;;8.20;99.90;;;;;;4963356;28;20050;-77
2023/12/31 04:36:45;;;;;;;7.38;3.72;;;8.20;99.90;;;;;;4971351;28;20057;-75
2023/12/31 04:39:12;;;;;;;6.57;3.53;;;8.30;99.90;;;;;;4964973;28;20043;-76
2023/12/31 04:41:37;;;;;;;5.05;3.28;;;8.30;99.90;;;;;;4961091;28;20047;-76
2023/12/31 04:44:03;;;;;;;5.82;3.15;;;8.30;99.90;;;;;;4965300;28;20038;-76
2023/12/31 04:46:29;;;;;;;6.50;3.13;;;8.20;99.90;;;;;;4977405;28;20069;-76
2023/12/31 04:48:55;;;;;;;8.85;3.45;;;8.20;99.90;;;;;;4965272;28;20487;-76
2023/12/31 04:51:28;;;;;;;6.82;3.05;;;8.30;99.90;;;;;;4964835;28;20484;-76
2023/12/31 04:53:55;;;;;;;5.07;3.10;;;8.20;99.90;;;;;;4966883;28;20128;-76
2023/12/31 04:56:21;;;;;;;6.18;2.90;;;8.20;99.90;;;;;;4964453;28;20079;-76
2023/12/31 04:58:51;;;;;;;6.93;2.92;;;8.20;99.90;;;;;;4959329;28;20042;-76
2023/12/31 05:01:18;;;;;;;5.50;3.13;;;8.30;99.90;;;;;;4962347;28;20401;-76
2023/12/31 05:03:45;;;;;;;6.65;3.20;;;8.60;99.90;;;;;;4968920;28;20371;-76
2023/12/31 05:06:12;;;;;;;5.57;2.80;;;8.20;99.90;;;;;;4973155;28;20039;-75
2023/12/31 05:08:40;;;;;;;7.00;3.03;;;8.20;99.90;;;;;;4960635;28;20043;-76
2023/12/31 05:11:06;;;;;;;6.65;3.05;;;8.20;99.90;;;;;;4961933;28;20039;-76
2023/12/31 05:13:32;;;;;;;5.65;3.03;;;8.20;99.90;;;;;;4968369;28;20070;-73
2023/12/31 05:15:58;;;;;;;8.57;2.88;;;8.20;99.90;;;;;;4958706;28;20036;-76
2023/12/31 05:18:23;;;;;;;4.63;2.70;;;8.30;99.90;;;;;;4954229;28;20058;-76
2023/12/31 05:20:49;;;;;;;7.82;3.10;;;8.30;99.90;;;;;;4959091;28;20051;-75
2023/12/31 05:23:14;;;;;;;5.05;2.92;;;8.20;99.90;;;;;;4956008;28;20043;-76
2023/12/31 05:25:40;;;;;;;5.63;3.00;;;8.20;99.90;;;;;;4968350;28;20465;-76
2023/12/31 05:28:05;;;;;;;7.28;3.50;;;8.20;99.90;;;;;;4969343;28;20035;-75
2023/12/31 05:30:31;;;;;;;5.00;3.13;;;8.20;99.90;;;;;;4959031;28;20043;-75
2023/12/31 05:32:57;;;;;;;5.93;3.03;;;8.20;99.90;;;;;;4976671;28;20031;-76
2023/12/31 05:35:22;;;;;;;4.88;3.03;;;8.30;99.90;;;;;;4972254;28;20042;-76
2023/12/31 05:37:48;;;;;;;6.38;3.50;;;8.30;99.90;;;;;;4963349;28;20046;-75
2023/12/31 05:40:13;;;;;;;6.15;3.03;;;8.30;99.90;;;;;;4959489;28;20039;-75
2023/12/31 05:42:39;;;;;;;5.50;2.80;;;8.30;99.90;;;;;;4953791;28;20047;-76
2023/12/31 05:45:05;;;;;;;4.65;2.90;;;8.30;99.90;;;;;;4964704;28;20049;-76
2023/12/31 05:47:30;;;;;;;5.63;2.95;;;8.30;99.90;;;;;;4966197;28;20093;-76
2023/12/31 05:49:56;;;;;;;4.88;2.75;;;8.30;99.90;;;;;;4958028;28;20047;-76
2023/12/31 05:52:21;;;;;;;6.25;3.13;;;8.30;99.90;;;;;;4961805;28;20158;-75
2023/12/31 05:54:47;;;;;;;8.80;2.88;;;8.30;99.90;;;;;;4965726;28;20125;-76
2023/12/31 05:57:13;;;;;;;4.95;2.47;;;8.30;99.90;;;;;;4970058;28;20038;-77
2023/12/31 05:59:39;;;;;;;4.43;2.50;;;8.30;99.90;;;;;;4970173;28;20474;-76
2023/12/31 06:02:05;;;;;;;4.07;2.40;;;8.30;99.90;;;;;;4981654;28;20043;-76
2023/12/31 06:04:30;;;;;;;6.60;2.60;;;8.40;99.90;;;;;;4965970;28;20406;-74
2023/12/31 06:06:56;;;;;;;4.97;2.40;;;8.30;99.90;;;;;;4970430;28;20066;-75
2023/12/31 06:09:21;;;;;;;6.32;2.60;;;8.30;99.90;;;;;;4967898;28;20042;-75
2023/12/31 06:11:47;;;;;;;5.18;2.70;;;8.40;99.90;;;;;;4970863;28;20043;-75
2023/12/31 06:14:13;;;;;;;5.53;2.63;;;8.40;99.90;;;;;;4973203;28;20079;-75
2023/12/31 06:16:38;;;;;;;7.03;2.72;;;8.40;99.90;;;;;;4964431;28;20034;-75
2023/12/31 06:19:04;;;;;;;4.75;2.60;;;8.30;99.90;;;;;;4976392;28;20039;-75
2023/12/31 06:21:29;;;;;;;4.38;2.70;;;8.30;99.90;;;;;;4986759;28;20078;-75
2023/12/31 06:23:55;;;;;;;5.30;2.67;;;8.40;99.90;;;;;;4968879;28;20043;-75
2023/12/31 06:26:20;;;;;;;6.53;2.88;;;8.40;99.90;;;;;;4954943;28;20051;-75
2023/12/31 06:28:46;;;;;;;4.03;2.55;;;8.40;99.90;;;;;;4967791;28;20039;-75
2023/12/31 06:31:11;;;;;;;4.05;2.35;;;8.30;99.90;;;;;;4968333;28;20131;-75
2023/12/31 06:33:37;;;;;;;4.28;2.67;;;8.30;99.90;;;;;;4963286;28;20047;-74
2023/12/31 06:36:03;;;;;;;5.53;2.70;;;8.30;99.90;;;;;;4979896;28;20043;-77
2023/12/31 06:38:28;;;;;;;7.68;2.63;;;8.30;99.90;;;;;;4956121;28;20478;-75
2023/12/31 06:40:54;;;;;;;3.83;2.67;;;8.30;99.90;;;;;;4963630;28;20368;-75
2023/12/31 06:43:20;;;;;;;5.32;2.53;;;8.30;99.90;;;;;;4966183;28;20121;-75
2023/12/31 06:45:46;;;;;;;4.85;2.63;;;8.30;99.90;;;;;;4977527;28;20051;-75
2023/12/31 06:48:12;;;;;;;5.75;2.70;;;8.30;99.90;;;;;;4958340;28;20035;-75
2023/12/31 06:50:37;;;;;;;6.07;3.03;;;8.30;99.90;;;;;;4963998;28;20424;-75
2023/12/31 06:53:03;;;;;;;5.00;3.00;;;8.30;99.90;;;;;;4958554;28;20039;-75
2023/12/31 06:55:28;;;;;;;4.00;2.58;;;8.30;99.90;;;;;;4973453;28;20277;-75
2023/12/31 06:57:54;;;;;;;5.20;3.00;;;8.30;99.90;;;;;;4976391;28;20039;-79
2023/12/31 07:00:22;;;;;;;9.60;3.08;;;8.30;99.90;;;;;;4971212;28;20047;-77
2023/12/31 07:02:47;;;;;;;7.78;2.97;;;8.30;99.90;;;;;;4971821;28;20568;-77
2023/12/31 07:05:13;;;;;;;6.00;3.00;;;8.30;99.90;;;;;;4963337;28;20047;-77
2023/12/31 07:07:40;;;;;;;6.22;2.88;;;8.30;99.90;;;;;;4970414;28;20391;-77
2023/12/31 07:10:06;;;;;;;5.95;3.15;;;8.40;99.90;;;;;;4976799;28;20046;-77
2023/12/31 07:12:33;;;;;;;5.90;3.00;;;8.40;99.90;;;;;;4970423;28;20058;-77
2023/12/31 07:14:59;;;;;;;5.45;2.95;;;8.40;99.90;;;;;;4970922;28;20186;-78
2023/12/31 07:17:24;;;;;;;6.85;2.70;;;8.40;99.90;;;;;;4963641;28;20121;-77
2023/12/31 07:19:50;;;;;;;5.10;3.08;;;8.40;99.90;;;;;;4968783;28;20041;-77
2023/12/31 07:22:15;;;;;;;5.03;3.10;;;8.40;99.90;;;;;;4970688;28;20039;-77
2023/12/31 07:24:41;;;;;;;6.75;3.05;;;8.40;99.90;;;;;;4963165;28;20078;-77
2023/12/31 07:27:08;;;;;;;5.65;3.22;;;8.50;99.90;;;;;;4965018;28;20124;-78
2023/12/31 07:29:34;;;;;;;9.48;3.38;;;8.40;99.90;;;;;;4962712;28;20050;-77
2023/12/31 07:31:59;;;;;;;5.43;3.10;;;8.50;99.90;;;;;;4959040;28;20043;-77
2023/12/31 07:34:25;;;;;;;5.78;3.10;;;8.50;99.90;;;;;;4956564;28;20039;-77
2023/12/31 07:36:50;;;;;;;5.18;3.10;;;8.50;99.90;;;;;;4963250;28;20035;-77
2023/12/31 07:39:16;;;;;;;4.55;3.00;;;8.50;99.90;;;;;;4981418;28;20177;-77
2023/12/31 07:41:41;;;;;;;5.10;3.03;;;8.50;99.90;;;;;;4960720;28;20051;-77
2023/12/31 07:44:07;;;;;;;5.95;3.17;;;8.50;99.90;;;;;;4961162;28;20046;-77
2023/12/31 07:46:32;;;;;;;6.32;3.50;;;8.60;99.90;;;;;;4957641;28;20057;-77
2023/12/31 07:48:58;;;;;;;6.47;3.72;;;8.60;99.90;;;;;;4958250;28;20042;-77
2023/12/31 07:51:24;;;;;;;5.10;3.13;;;8.60;99.90;;;;;;4957276;28;20114;-77
2023/12/31 07:53:49;;;;;;;6.72;2.70;;;8.70;99.90;;;;;;4959722;28;20398;-77
2023/12/31 07:56:15;;;;;;;8.68;4.22;;;8.60;99.90;;;;;;4958495;28;20043;-77
2023/12/31 07:58:41;;;;;;;6.68;3.33;;;8.70;99.90;;;;;;4962512;28;20090;-77
2023/12/31 08:01:06;;;;;;;5.85;3.17;;;8.70;99.90;;;;;;4970174;28;20474;-77
2023/12/31 08:03:32;;;;;;;8.63;3.08;;;8.70;99.90;;;;;;4971256;28;20491;-77
2023/12/31 08:05:57;;;;;;;6.60;3.13;;;8.70;99.90;;;;;;4956407;28;20031;-77
2023/12/31 08:08:24;;;;;;;5.75;2.92;;;8.70;99.90;;;;;;4963918;28;20043;-77
2023/12/31 08:10:49;;;;;;;9.68;3.38;;;8.70;99.90;;;;;;4966448;28;20117;-77
2023/12/31 08:13:15;;;;;;;6.18;3.00;;;8.70;99.90;;;;;;4964651;28;20118;-77
2023/12/31 08:15:41;;;;;;;5.13;3.10;;;8.70;99.90;;;;;;4973648;28;20050;-77
2023/12/31 08:18:07;;;;;;;5.35;3.22;;;8.80;99.90;;;;;;4973440;28;20125;-77
2023/12/31 08:20:33;;;;;;;9.57;3.38;;;8.80;99.90;;;;;;4970829;28;20043;-77
2023/12/31 08:22:59;;;;;;;4.90;3.13;;;8.70;99.90;;;;;;4961110;28;20055;-77
2023/12/31 08:25:24;;;;;;;6.32;3.22;;;8.80;99.90;;;;;;4966504;28;20035;-76
2023/12/31 08:27:50;;;;;;;5.75;3.20;;;8.80;99.90;;;;;;4973017;28;20058;-75
2023/12/31 08:30:16;;;;;;;5.50;3.05;;;8.80;99.90;;;;;;4971167;28;20038;-76
2023/12/31 08:32:41;;;;;;;7.22;2.90;;;8.80;99.90;;;;;;4975404;28;20046;-76
2023/12/31 08:35:09;;;;;;;5.53;3.28;;;8.80;99.90;;;;;;4950959;28;20505;-76
2023/12/31 08:37:36;;;;;;;5.45;3.13;;;8.80;99.90;;;;;;4971457;28;20109;-76
2023/12/31 08:40:01;;;;;;;5.95;3.53;;;8.90;99.90;;;;;;4952585;28;20125;-76
2023/12/31 08:42:27;;;;;;;7.32;3.25;;;8.80;99.90;;;;;;4963242;28;20532;-76
2023/12/31 08:44:52;;;;;;;7.18;3.20;;;8.90;99.90;;;;;;4971422;28;20051;-75
2023/12/31 08:47:18;;;;;;;4.53;3.10;;;8.90;99.90;;;;;;4967957;28;20105;-75
2023/12/31 08:49:43;;;;;;;8.43;3.33;;;8.90;99.90;;;;;;4978866;28;20054;-75
2023/12/31 08:52:09;;;;;;;6.68;3.33;;;8.90;99.90;;;;;;4975439;28;20525;-76
2023/12/31 08:54:35;;;;;;;4.80;3.20;;;8.90;99.90;;;;;;4983301;28;20516;-76
2023/12/31 08:57:00;;;;;;;5.18;3.10;;;9.20;99.90;;;;;;4968742;28;20027;-76
2023/12/31 08:59:26;;;;;;;7.18;3.13;;;9.00;99.90;;;;;;4966622;28;20081;-76
2023/12/31 09:01:51;;;;;;;4.88;3.13;;;9.00;99.90;;;;;;4959963;28;20417;-75
2023/12/31 09:04:17;;;;;;;5.43;3.40;;;9.10;99.90;;;;;;4965260;28;20417;-76
2023/12/31 09:06:44;;;;;;;5.65;3.10;;;9.10;99.90;;;;;;4973425;28;20047;-76
2023/12/31 09:09:10;;;;;;;8.73;3.40;;;9.10;99.90;;;;;;4959531;28;20039;-76
2023/12/31 09:11:36;;;;;;;6.32;3.35;;;9.10;99.90;;;;;;4967517;28;20106;-76
2023/12/31 09:14:01;;;;;;;5.95;3.67;;;9.10;99.90;;;;;;4969694;28;20043;-76
2023/12/31 09:16:27;;;;;;;5.70;3.38;;;9.20;99.90;;;;;;4962144;28;20039;-76
2023/12/31 09:18:53;;;;;;;6.22;3.20;;;9.20;99.90;;;;;;4960229;28;20043;-76
2023/12/31 09:21:18;;;;;;;5.97;3.53;;;9.10;99.90;;;;;;4965958;28;20035;-76
2023/12/31 09:23:44;;;;;;;5.97;3.47;;;9.10;99.90;;;;;;4965375;28;20580;-76
2023/12/31 09:26:10;;;;;;;6.78;3.50;;;9.10;99.90;;;;;;4972345;28;20035;-77
2023/12/31 09:28:36;;;;;;;10.40;3.88;;;9.10;99.90;;;;;;4965709;28;20504;-76
2023/12/31 09:31:01;;;;;;;7.47;3.80;;;9.20;99.90;;;;;;4973140;28;20075;-76
2023/12/31 09:33:27;;;;;;;6.05;3.55;;;9.10;99.90;;;;;;4967085;28;20051;-76
2023/12/31 09:35:53;;;;;;;5.88;3.83;;;9.20;99.90;;;;;;4972369;28;20043;-76
2023/12/31 09:38:18;;;;;;;9.45;4.07;;;9.20;99.90;;;;;;4972509;28;20043;-75
2023/12/31 09:40:44;;;;;;;6.38;4.03;;;9.20;99.90;;;;;;4971327;28;20035;-76
2023/12/31 09:43:12;;;;;;;9.23;3.92;;;9.20;99.90;;;;;;4972659;28;20406;-77
2023/12/31 09:45:39;;;;;;;7.07;4.03;;;9.20;99.90;;;;;;4970990;28;20047;-77
2023/12/31 09:48:07;;;;;;;6.05;3.55;;;9.30;99.90;;;;;;4970155;28;20043;-76
2023/12/31 09:50:34;;;;;;;6.20;3.90;;;9.30;99.90;;;;;;4973063;28;20688;-76
2023/12/31 09:53:02;;;;;;;5.78;4.10;;;9.30;99.90;;;;;;4972069;28;20042;-76
2023/12/31 09:55:29;;;;;;;7.13;3.97;;;9.30;99.90;;;;;;4972354;28;20442;-75
2023/12/31 09:57:55;;;;;;;5.70;3.88;;;9.30;99.90;;;;;;4970686;28;20089;-76
2023/12/31 10:00:21;;;;;;;8.10;4.40;;;9.30;99.90;;;;;;4969560;28;20574;-76
2023/12/31 10:02:50;;;;;;;6.38;4.22;;;9.30;99.90;;;;;;4970243;28;20125;-75
2023/12/31 10:05:17;;;;;;;6.25;4.15;;;9.40;99.90;;;;;;4972510;28;20121;-76
2023/12/31 10:07:44;;;;;;;8.32;4.22;;;9.40;99.90;;;;;;4965539;28;20066;-76
2023/12/31 10:10:14;;;;;;;6.05;4.03;;;9.40;99.90;;;;;;4949369;28;20097;-76
2023/12/31 10:12:40;;;;;;;7.60;3.92;;;9.40;99.90;;;;;;4971426;28;20469;-75
2023/12/31 10:15:08;;;;;;;6.38;3.95;;;9.50;99.90;;;;;;4962470;28;20047;-76
2023/12/31 10:17:36;;;;;;;6.85;4.10;;;9.50;99.90;;;;;;4966849;28;20495;-75
2023/12/31 10:20:03;;;;;;;5.85;3.90;;;9.50;99.90;;;;;;4973208;28;20046;-76
2023/12/31 10:22:36;;;;;;;6.55;4.03;;;9.60;99.90;;;;;;4963296;28;20049;-76
2023/12/31 10:25:14;;;;;;;6.07;3.50;;;9.60;99.90;;;;;;4962494;28;20478;-76
2023/12/31 10:27:43;;;;;;;6.60;4.00;;;9.70;99.90;;;;;;4970664;28;20125;-76
2023/12/31 10:30:12;;;;;;;5.65;3.65;;;9.70;99.90;;;;;;4965176;28;20050;-76
2023/12/31 10:32:38;;;;;;;6.63;3.60;;;9.70;99.90;;;;;;4967513;28;20657;-76
2023/12/31 10:35:04;;;;;;;7.75;3.72;;;9.80;99.90;;;;;;4974449;28;20039;-76
2023/12/31 10:37:30;;;;;;;6.57;4.30;;;9.90;99.90;;;;;;4964716;28;20049;-75
2023/12/31 10:39:56;;;;;;;6.03;3.45;;;9.90;99.90;;;;;;4965137;28;20039;-75
2023/12/31 10:42:22;;;;;;;6.82;3.15;;;10.00;99.90;;;;;;4962941;28;20093;-75
2023/12/31 10:44:53;;;;;;;5.53;2.95;;;10.00;99.90;;;;;;4971436;28;20043;-75
2023/12/31 10:47:22;;;;;;;5.35;2.97;;;10.10;99.90;;;;;;4967116;28;20047;-76
2023/12/31 10:49:49;;;;;;;4.68;2.63;;;10.10;99.90;;;;;;4962048;28;20035;-77
2023/12/31 10:52:16;;;;;;;4.95;3.03;;;10.10;99.90;;;;;;4959272;28;20498;-76
2023/12/31 10:54:45;;;;;;;4.88;3.00;;;10.10;99.90;;;;;;4959215;28;20042;-77
2023/12/31 10:57:10;;;;;;;6.18;2.78;;;10.10;99.90;;;;;;4959734;28;20669;-76
2023/12/31 10:59:38;;;;;;;4.40;2.90;;;10.10;99.90;;;;;;4975097;28;20042;-76
2023/12/31 11:02:04;;;;;;;5.28;2.90;;;10.10;99.90;;;;;;4974970;28;20030;-74
2023/12/31 11:04:31;;;;;;;4.07;2.60;;;10.00;99.90;;;;;;4967461;28;20105;-76
2023/12/31 11:06:56;;;;;;;4.43;2.60;;;10.00;99.90;;;;;;4976860;28;20078;-76
2023/12/31 11:09:23;;;;;;;4.63;2.70;;;9.90;99.90;;;;;;4980467;28;20572;-77
2023/12/31 11:11:50;;;;;;;4.90;2.58;;;9.90;99.90;;;;;;4971236;28;20045;-75
2023/12/31 11:14:18;;;;;;;4.35;2.47;;;9.90;99.90;;;;;;4962231;28;20132;-77
2023/12/31 11:17:10;;;;;;;4.00;2.35;;;9.80;99.90;;;;;;4969211;28;20051;-76
2023/12/31 11:20:21;;;;;;;6.70;2.40;;;9.80;99.90;;;;;;4956471;28;20055;-76
2023/12/31 11:23:01;;;;;;;3.75;1.50;;;9.80;99.90;;;;;;4937784;28;20050;-74
2023/12/31 11:25:27;;;;;;;2.08;0.82;;;9.60;99.90;;;;;;4967222;28;20082;-75
2023/12/31 11:27:54;;;;;;;2.58;1.05;;;9.20;99.90;;;;;;4984036;28;20042;-76
2023/12/31 11:30:49;;;;;;;2.10;0.80;;;9.10;99.90;;;;;;4970400;28;20070;-75
2023/12/31 11:33:20;;;;;;;2.38;1.00;;;8.90;99.90;;;;;;4963174;28;20039;-76
2023/12/31 11:35:46;;;;;;;3.50;1.00;;;8.70;99.90;;;;;;4973015;28;20066;-75
2023/12/31 11:38:12;;;;;;;3.03;1.10;;;8.60;99.90;;;;;;4966193;28;20043;-74
2023/12/31 11:40:39;;;;;;;2.50;1.45;;;8.50;99.90;;;;;;4968047;28;20039;-73
2023/12/31 11:43:15;;;;;;;1.70;1.30;;;8.50;99.90;;;;;;4965476;28;20039;-75
2023/12/31 11:45:45;;;;;;;2.08;1.35;;;8.50;99.90;;;;;;4966150;28;20038;-75
2023/12/31 11:48:24;;;;;;;2.78;1.42;;;8.40;99.90;;;;;;4963512;28;20074;-74
2023/12/31 11:50:52;;;;;;;2.00;1.20;;;8.40;99.90;;;;;;4983247;28;20038;-75
2023/12/31 11:53:20;;;;;;;2.38;1.25;;;8.40;99.90;;;;;;4967853;28;20039;-76
2023/12/31 11:55:52;;;;;;;4.32;1.52;;;8.40;99.90;;;;;;4967194;28;20129;-76
2023/12/31 11:58:19;;;;;;;4.50;1.20;;;8.40;99.90;;;;;;4962563;28;20042;-75
2023/12/31 12:00:45;;;;;;;3.72;1.40;;;8.40;99.90;;;;;;4964767;28;20525;-75
2023/12/31 12:03:14;;;;;;;4.03;1.60;;;8.50;99.90;;;;;;4971810;28;20030;-75
2023/12/31 12:05:39;;;;;;;3.03;1.33;;;8.60;99.90;;;;;;4985875;28;20528;-75
2023/12/31 12:08:07;;;;;;;6.78;1.88;;;8.70;99.90;;;;;;4966883;28;20035;-75
2023/12/31 12:10:35;;;;;;;3.97;1.65;;;8.90;99.90;;;;;;4975819;28;20039;-75
2023/12/31 12:13:01;;;;;;;3.33;1.67;;;9.10;99.90;;;;;;4970530;28;20047;-75
2023/12/31 12:15:33;;;;;;;3.53;1.20;;;9.30;99.90;;;;;;4973866;28;20074;-76
2023/12/31 12:17:59;;;;;;;;;;;9.40;99.90;;;;;;4973050;28;20555;-77
2023/12/31 12:20:25;;;;;;;3.20;1.27;;;9.50;99.90;;;;;;4994533;28;19921;-76
2023/12/31 12:22:50;;;;;;;2.13;1.20;;;9.50;99.90;;;;;;4966695;28;20038;-76
2023/12/31 12:25:16;;;;;;;3.03;1.30;;;9.50;99.90;;;;;;4980290;28;20110;-76
2023/12/31 12:27:41;;;;;;;3.22;1.25;;;9.30;99.90;;;;;;4977862;28;20038;-76
2023/12/31 12:30:08;;;;;;;1.77;1.13;;;9.20;99.90;;;;;;4966748;28;20093;-77
2023/12/31 12:32:34;;;;;;;3.28;1.40;;;9.10;99.90;;;;;;4978002;28;20105;-76
2023/12/31 12:35:02;;;;;;;5.05;1.77;;;9.10;99.90;;;;;;4965352;28;20039;-76
2023/12/31 12:37:29;;;;;;;3.80;1.73;;;9.00;99.90;;;;;;4983017;28;20038;-75
2023/12/31 12:39:57;;;;;;;3.13;1.67;;;9.00;99.90;;;;;;4955691;28;20097;-75
2023/12/31 12:42:27;;;;;;;3.05;2.00;;;9.00;99.90;;;;;;4980478;28;20486;-76
2023/12/31 12:44:55;;;;;;;3.47;1.92;;;9.00;99.90;;;;;;4953178;28;20062;-77
2023/12/31 12:47:21;;;;;;;4.20;2.15;;;9.00;99.90;;;;;;4966732;28;20136;-74
2023/12/31 12:49:46;;;;;;;5.20;2.08;;;9.00;99.90;;;;;;4969738;28;20043;-76
2023/12/31 12:52:12;;;;;;;2.83;1.70;;;9.00;99.90;;;;;;4968628;28;20049;-74
2023/12/31 12:54:38;;;;;;;3.92;1.77;;;9.00;99.90;;;;;;4961515;28;20137;-74